美保飛行場の過去48時間の天気

美保飛行場 (Miho)

現在時刻: 10/20 03:38 JST (10/19 18:38 UTC) 以下の時間は現地時間です。

過去48時間のMETAR気象情報
時間 風向 風速(m/s) 視程 気温(℃) 湿度(%) 気圧(hPa) 天気現象
20 03:00 4 10km以上 16 51 1021
20 02:00 4 10km以上 16 51 1022
20 01:00 4 10km以上 16 55 1021
20 00:00 北北西 4 10km以上 17 55 1021
19 23:00 5 10km以上 17 55 1021
19 22:00 5 10km以上 17 55 1021
19 21:00 5 10km以上 18 52 1021
19 20:00 6 10km以上 17 55 1020
19 19:00 北北東 5 10km以上 17 63 1020 弱いしゅう雨
19 18:00 6 10km以上 18 60 1019
19 17:00 北北東 6 10km以上 17 68 1019
19 16:00 北北東 6 10km以上 17 72 1018
19 15:00 6 10km以上 19 56 1018 弱いしゅう雨
19 14:00 北北東 3 10km以上 19 46 1017
19 13:00 北東 4 10km以上 19 52 1017
19 12:00 北東 7 10km以上 20 49 1018
19 11:00 北東 3 10km以上 20 49 1017
19 10:00 不定 1 10km以上 18 64 1018
19 09:00 北北西 3 10km以上 17 72 1017
19 08:00 2 10km以上 15 82 1017
19 07:00 不定 1 10km以上 14 82 1017
19 06:00 南東 2 10km以上 13 82 1016
19 05:00 南南東 2 10km以上 13 82 1016
RJOH 191800Z 35007KT 9999 FEW030 BKN120 16/06 Q1021
RJOH 191700Z 35008KT 9999 FEW030 SCT050 BKN120 16/06 Q1022
RJOH 191600Z 35008KT 9999 FEW030 SCT050 BKN120 16/07 Q1021
RJOH 191500Z 34008KT 9999 FEW030 BKN050 BKN120 17/08 Q1021
RJOH 191400Z 35010KT 9999 FEW030 SCT050 BKN120 17/08 Q1021
RJOH 191300Z 36009KT 9999 FEW030 BKN050 BKN110 17/08 Q1021
RJOH 191200Z 36009KT 340V040 9999 FEW030 BKN050 BKN110 18/08 Q1021
RJOH 191100Z 01011KT 9999 FEW020 SCT030 BKN050 17/08 Q1020
RJOH 191000Z 02009KT 9999 -SHRA FEW015 BKN030 BKN050 17/10 Q1020
RJOH 190900Z 01012KT 9999 FEW015 BKN030 BKN080 18/10 Q1019
RJOH 190800Z 02012KT 360V060 9999 FEW015 BKN080 17/11 Q1019
RJOH 190700Z 02012KT 9999 FEW015 SCT030 BKN080 17/12 Q1018
RJOH 190600Z 01011KT 9999 -SHRA FEW010 SCT015 BKN030CB 19/10 Q1018
RJOH 190500Z 03006KT 360V060 9999 FEW020 SCT030 FEW030CB BKN080 19/07 Q1017
RJOH 190400Z 04007KT 010V090 9999 FEW015 FEW030TCU BKN080 19/09 Q1017
RJOH 190300Z 04013KT 9999 FEW015 BKN060 20/09 Q1018
RJOH 190200Z 04005KT 350V130 9999 FEW020 SCT050 20/09 Q1017
RJOH 190100Z VRB02KT 9999 FEW020 BKN050 18/11 Q1018
RJOH 190000Z 34005KT 9999 FEW015 FEW030CB SCT060 17/12 Q1017
RJOH 182300Z 18004KT 9999 FEW015 FEW030CB BKN060 BKN100 15/12 Q1017
RJOH 182200Z VRB02KT 9999 FEW015 BKN060 BKN100 14/11 Q1017
RJOH 182100Z 14004KT 9999 FEW015 SCT030 BKN060 13/10 Q1016
RJOH 182000Z 16004KT 9999 FEW020 SCT030 BKN060 13/10 Q1016